sensor_id;sensor_type;location;lat;lon;timestamp;P1;durP1;ratioP1;P2;durP2;ratioP2
17065;SDS011;23120;52.336;21.182;2022-07-23T00:02:20;16.40;;;14.13;;
17065;SDS011;23120;52.336;21.182;2022-07-23T00:04:47;16.00;;;14.17;;
17065;SDS011;23120;52.336;21.182;2022-07-23T00:07:15;17.03;;;13.70;;
17065;SDS011;23120;52.336;21.182;2022-07-23T00:09:42;19.60;;;14.20;;
17065;SDS011;23120;52.336;21.182;2022-07-23T00:12:09;37.20;;;16.33;;
17065;SDS011;23120;52.336;21.182;2022-07-23T00:14:36;25.77;;;14.63;;
17065;SDS011;23120;52.336;21.182;2022-07-23T00:17:02;18.33;;;14.60;;
17065;SDS011;23120;52.336;21.182;2022-07-23T00:19:29;19.53;;;13.97;;
17065;SDS011;23120;52.336;21.182;2022-07-23T00:21:56;24.40;;;14.90;;
17065;SDS011;23120;52.336;21.182;2022-07-23T00:24:24;22.57;;;14.90;;
17065;SDS011;23120;52.336;21.182;2022-07-23T00:26:51;21.17;;;15.07;;
17065;SDS011;23120;52.336;21.182;2022-07-23T00:29:18;20.80;;;14.60;;
17065;SDS011;23120;52.336;21.182;2022-07-23T00:31:45;20.07;;;15.23;;
17065;SDS011;23120;52.336;21.182;2022-07-23T00:34:11;18.27;;;14.40;;
17065;SDS011;23120;52.336;21.182;2022-07-23T00:36:38;15.83;;;14.23;;
17065;SDS011;23120;52.336;21.182;2022-07-23T00:39:06;22.23;;;13.93;;
17065;SDS011;23120;52.336;21.182;2022-07-23T00:41:34;18.87;;;14.13;;
17065;SDS011;23120;52.336;21.182;2022-07-23T00:44:17;20.87;;;14.50;;
17065;SDS011;23120;52.336;21.182;2022-07-23T00:46:45;15.50;;;14.07;;
17065;SDS011;23120;52.336;21.182;2022-07-23T00:49:13;18.63;;;14.23;;
17065;SDS011;23120;52.336;21.182;2022-07-23T00:51:40;17.10;;;14.33;;
17065;SDS011;23120;52.336;21.182;2022-07-23T00:54:07;18.93;;;12.93;;
17065;SDS011;23120;52.336;21.182;2022-07-23T00:56:35;15.20;;;13.70;;
17065;SDS011;23120;52.336;21.182;2022-07-23T00:59:03;16.43;;;14.03;;
17065;SDS011;23120;52.336;21.182;2022-07-23T01:01:31;14.67;;;13.37;;
17065;SDS011;23120;52.336;21.182;2022-07-23T01:03:58;15.50;;;14.00;;
17065;SDS011;23120;52.336;21.182;2022-07-23T01:06:25;16.40;;;14.00;;
17065;SDS011;23120;52.336;21.182;2022-07-23T01:08:52;15.63;;;14.10;;
17065;SDS011;23120;52.336;21.182;2022-07-23T01:11:20;15.10;;;13.67;;
17065;SDS011;23120;52.336;21.182;2022-07-23T01:13:50;16.20;;;13.47;;
17065;SDS011;23120;52.336;21.182;2022-07-23T01:16:17;19.40;;;14.63;;
17065;SDS011;23120;52.336;21.182;2022-07-23T01:18:43;15.83;;;14.17;;
17065;SDS011;23120;52.336;21.182;2022-07-23T01:21:10;15.93;;;14.23;;
17065;SDS011;23120;52.336;21.182;2022-07-23T01:23:40;16.10;;;13.97;;
17065;SDS011;23120;52.336;21.182;2022-07-23T01:26:07;15.50;;;13.80;;
17065;SDS011;23120;52.336;21.182;2022-07-23T01:28:35;15.87;;;14.17;;
17065;SDS011;23120;52.336;21.182;2022-07-23T01:31:02;14.77;;;13.20;;
17065;SDS011;23120;52.336;21.182;2022-07-23T01:33:33;15.20;;;13.73;;
17065;SDS011;23120;52.336;21.182;2022-07-23T01:36:00;15.00;;;13.60;;
17065;SDS011;23120;52.336;21.182;2022-07-23T01:38:27;15.90;;;14.30;;
17065;SDS011;23120;52.336;21.182;2022-07-23T01:40:55;16.00;;;14.60;;
17065;SDS011;23120;52.336;21.182;2022-07-23T01:43:28;15.60;;;14.20;;
17065;SDS011;23120;52.336;21.182;2022-07-23T01:45:55;15.17;;;13.77;;
17065;SDS011;23120;52.336;21.182;2022-07-23T01:48:24;15.00;;;13.60;;
17065;SDS011;23120;52.336;21.182;2022-07-23T01:51:11;14.97;;;13.27;;
17065;SDS011;23120;52.336;21.182;2022-07-23T01:53:41;14.80;;;13.30;;
17065;SDS011;23120;52.336;21.182;2022-07-23T01:56:10;17.50;;;13.40;;
17065;SDS011;23120;52.336;21.182;2022-07-23T01:58:36;15.40;;;13.40;;
17065;SDS011;23120;52.336;21.182;2022-07-23T02:01:04;14.90;;;13.37;;
17065;SDS011;23120;52.336;21.182;2022-07-23T02:03:31;14.83;;;13.53;;
17065;SDS011;23120;52.336;21.182;2022-07-23T02:05:58;14.40;;;13.10;;
17065;SDS011;23120;52.336;21.182;2022-07-23T02:08:27;16.80;;;14.73;;
17065;SDS011;23120;52.336;21.182;2022-07-23T02:10:54;16.23;;;13.53;;
17065;SDS011;23120;52.336;21.182;2022-07-23T02:13:22;17.00;;;14.17;;
17065;SDS011;23120;52.336;21.182;2022-07-23T02:15:49;16.20;;;13.97;;
17065;SDS011;23120;52.336;21.182;2022-07-23T02:18:15;17.50;;;13.60;;
17065;SDS011;23120;52.336;21.182;2022-07-23T02:20:42;18.10;;;13.80;;
17065;SDS011;23120;52.336;21.182;2022-07-23T02:23:09;21.13;;;14.60;;
17065;SDS011;23120;52.336;21.182;2022-07-23T02:25:37;14.40;;;12.90;;
17065;SDS011;23120;52.336;21.182;2022-07-23T02:28:04;13.97;;;12.43;;
17065;SDS011;23120;52.336;21.182;2022-07-23T02:30:32;14.20;;;12.27;;
17065;SDS011;23120;52.336;21.182;2022-07-23T02:33:00;14.23;;;12.73;;
17065;SDS011;23120;52.336;21.182;2022-07-23T02:35:27;14.17;;;12.83;;
17065;SDS011;23120;52.336;21.182;2022-07-23T02:37:56;14.00;;;12.70;;
17065;SDS011;23120;52.336;21.182;2022-07-23T02:40:23;15.07;;;12.27;;
17065;SDS011;23120;52.336;21.182;2022-07-23T02:42:50;14.30;;;12.43;;
17065;SDS011;23120;52.336;21.182;2022-07-23T02:45:16;13.23;;;11.90;;
17065;SDS011;23120;52.336;21.182;2022-07-23T02:47:45;16.03;;;12.20;;
17065;SDS011;23120;52.336;21.182;2022-07-23T02:50:11;14.47;;;13.00;;
17065;SDS011;23120;52.336;21.182;2022-07-23T02:52:38;13.17;;;11.90;;
17065;SDS011;23120;52.336;21.182;2022-07-23T02:55:06;13.07;;;11.90;;
17065;SDS011;23120;52.336;21.182;2022-07-23T02:57:33;13.90;;;12.33;;
17065;SDS011;23120;52.336;21.182;2022-07-23T03:00:00;12.77;;;11.53;;
17065;SDS011;23120;52.336;21.182;2022-07-23T03:02:27;14.00;;;12.57;;
17065;SDS011;23120;52.336;21.182;2022-07-23T03:04:55;13.27;;;12.03;;
17065;SDS011;23120;52.336;21.182;2022-07-23T03:07:22;12.73;;;11.50;;
17065;SDS011;23120;52.336;21.182;2022-07-23T03:09:50;12.63;;;11.43;;
17065;SDS011;23120;52.336;21.182;2022-07-23T03:12:17;12.73;;;11.63;;
17065;SDS011;23120;52.336;21.182;2022-07-23T03:14:44;12.63;;;11.50;;
17065;SDS011;23120;52.336;21.182;2022-07-23T03:17:11;13.40;;;12.00;;
17065;SDS011;23120;52.336;21.182;2022-07-23T03:19:37;13.10;;;11.43;;
17065;SDS011;23120;52.336;21.182;2022-07-23T03:22:07;13.20;;;12.03;;
17065;SDS011;23120;52.336;21.182;2022-07-23T03:24:34;13.70;;;12.33;;
17065;SDS011;23120;52.336;21.182;2022-07-23T03:27:20;13.30;;;12.10;;
17065;SDS011;23120;52.336;21.182;2022-07-23T03:29:48;13.73;;;12.37;;
17065;SDS011;23120;52.336;21.182;2022-07-23T03:32:15;13.33;;;12.10;;
17065;SDS011;23120;52.336;21.182;2022-07-23T03:34:42;13.70;;;12.17;;
17065;SDS011;23120;52.336;21.182;2022-07-23T03:37:11;13.50;;;12.20;;
17065;SDS011;23120;52.336;21.182;2022-07-23T03:39:38;13.43;;;12.07;;
17065;SDS011;23120;52.336;21.182;2022-07-23T03:42:05;14.17;;;12.83;;
17065;SDS011;23120;52.336;21.182;2022-07-23T03:44:32;13.93;;;12.50;;
17065;SDS011;23120;52.336;21.182;2022-07-23T03:47:01;14.10;;;12.77;;
17065;SDS011;23120;52.336;21.182;2022-07-23T03:49:28;15.30;;;13.20;;
17065;SDS011;23120;52.336;21.182;2022-07-23T03:51:54;13.23;;;11.90;;
17065;SDS011;23120;52.336;21.182;2022-07-23T03:54:23;14.17;;;12.83;;
17065;SDS011;23120;52.336;21.182;2022-07-23T03:56:50;14.37;;;12.97;;
17065;SDS011;23120;52.336;21.182;2022-07-23T03:59:17;14.30;;;11.80;;
17065;SDS011;23120;52.336;21.182;2022-07-23T04:01:43;13.73;;;11.63;;
17065;SDS011;23120;52.336;21.182;2022-07-23T04:04:10;13.13;;;12.00;;
17065;SDS011;23120;52.336;21.182;2022-07-23T04:06:39;12.80;;;11.53;;
17065;SDS011;23120;52.336;21.182;2022-07-23T04:09:06;13.13;;;11.83;;
17065;SDS011;23120;52.336;21.182;2022-07-23T04:11:34;13.83;;;12.50;;
17065;SDS011;23120;52.336;21.182;2022-07-23T04:14:01;13.33;;;12.03;;
17065;SDS011;23120;52.336;21.182;2022-07-23T04:16:29;13.10;;;11.90;;
17065;SDS011;23120;52.336;21.182;2022-07-23T04:18:56;13.53;;;12.17;;
17065;SDS011;23120;52.336;21.182;2022-07-23T04:21:24;14.90;;;13.50;;
17065;SDS011;23120;52.336;21.182;2022-07-23T04:23:51;14.10;;;12.60;;
17065;SDS011;23120;52.336;21.182;2022-07-23T04:26:19;15.00;;;13.47;;
17065;SDS011;23120;52.336;21.182;2022-07-23T04:28:47;17.90;;;13.63;;
17065;SDS011;23120;52.336;21.182;2022-07-23T04:31:15;14.67;;;13.30;;
17065;SDS011;23120;52.336;21.182;2022-07-23T04:33:42;15.00;;;13.57;;
17065;SDS011;23120;52.336;21.182;2022-07-23T04:36:09;15.40;;;13.90;;
17065;SDS011;23120;52.336;21.182;2022-07-23T04:38:35;16.43;;;14.77;;
17065;SDS011;23120;52.336;21.182;2022-07-23T04:41:03;16.33;;;14.63;;
17065;SDS011;23120;52.336;21.182;2022-07-23T04:43:30;16.00;;;14.40;;
17065;SDS011;23120;52.336;21.182;2022-07-23T04:45:58;16.73;;;14.27;;
17065;SDS011;23120;52.336;21.182;2022-07-23T04:48:26;17.47;;;15.73;;
17065;SDS011;23120;52.336;21.182;2022-07-23T04:51:01;16.13;;;14.60;;
17065;SDS011;23120;52.336;21.182;2022-07-23T04:53:29;18.17;;;15.17;;
17065;SDS011;23120;52.336;21.182;2022-07-23T04:55:59;19.53;;;15.93;;
17065;SDS011;23120;52.336;21.182;2022-07-23T04:58:26;17.00;;;15.30;;
17065;SDS011;23120;52.336;21.182;2022-07-23T05:00:53;17.50;;;15.00;;
17065;SDS011;23120;52.336;21.182;2022-07-23T05:03:24;17.17;;;15.13;;
17065;SDS011;23120;52.336;21.182;2022-07-23T05:05:52;16.57;;;14.80;;
17065;SDS011;23120;52.336;21.182;2022-07-23T05:08:19;14.80;;;13.50;;
17065;SDS011;23120;52.336;21.182;2022-07-23T05:10:49;16.00;;;14.60;;
17065;SDS011;23120;52.336;21.182;2022-07-23T05:13:18;15.77;;;14.40;;
17065;SDS011;23120;52.336;21.182;2022-07-23T05:15:45;15.53;;;14.13;;
17065;SDS011;23120;52.336;21.182;2022-07-23T05:18:12;15.37;;;13.87;;
17065;SDS011;23120;52.336;21.182;2022-07-23T05:20:41;15.70;;;14.23;;
17065;SDS011;23120;52.336;21.182;2022-07-23T05:23:09;17.43;;;14.37;;
17065;SDS011;23120;52.336;21.182;2022-07-23T05:25:36;15.20;;;13.70;;
17065;SDS011;23120;52.336;21.182;2022-07-23T05:28:03;13.93;;;12.63;;
17065;SDS011;23120;52.336;21.182;2022-07-23T05:30:31;14.20;;;12.90;;
17065;SDS011;23120;52.336;21.182;2022-07-23T05:33:00;14.43;;;13.07;;
17065;SDS011;23120;52.336;21.182;2022-07-23T05:35:27;15.43;;;13.77;;
17065;SDS011;23120;52.336;21.182;2022-07-23T05:38:15;14.15;;;12.65;;
17065;SDS011;23120;52.336;21.182;2022-07-23T05:40:43;17.83;;;12.77;;
17065;SDS011;23120;52.336;21.182;2022-07-23T05:43:10;14.13;;;12.93;;
17065;SDS011;23120;52.336;21.182;2022-07-23T05:45:36;13.80;;;12.50;;
17065;SDS011;23120;52.336;21.182;2022-07-23T05:48:04;13.40;;;12.10;;
17065;SDS011;23120;52.336;21.182;2022-07-23T05:50:37;13.63;;;12.20;;
17065;SDS011;23120;52.336;21.182;2022-07-23T05:53:12;14.35;;;12.32;;
17065;SDS011;23120;52.336;21.182;2022-07-23T05:55:58;14.48;;;12.50;;
17065;SDS011;23120;52.336;21.182;2022-07-23T05:58:24;14.93;;;12.80;;
17065;SDS011;23120;52.336;21.182;2022-07-23T06:00:51;12.82;;;11.50;;
17065;SDS011;23120;52.336;21.182;2022-07-23T06:03:18;13.52;;;10.90;;
17065;SDS011;23120;52.336;21.182;2022-07-23T06:05:45;13.57;;;11.55;;
17065;SDS011;23120;52.336;21.182;2022-07-23T06:08:12;12.13;;;11.02;;
17065;SDS011;23120;52.336;21.182;2022-07-23T06:10:39;12.27;;;11.10;;
17065;SDS011;23120;52.336;21.182;2022-07-23T06:13:08;12.88;;;11.52;;
17065;SDS011;23120;52.336;21.182;2022-07-23T06:15:35;15.63;;;11.45;;
17065;SDS011;23120;52.336;21.182;2022-07-23T06:18:02;18.52;;;11.45;;
17065;SDS011;23120;52.336;21.182;2022-07-23T06:20:29;11.95;;;10.82;;
17065;SDS011;23120;52.336;21.182;2022-07-23T06:22:57;12.20;;;10.93;;
17065;SDS011;23120;52.336;21.182;2022-07-23T06:25:24;12.68;;;11.15;;
17065;SDS011;23120;52.336;21.182;2022-07-23T06:27:50;11.73;;;10.65;;
17065;SDS011;23120;52.336;21.182;2022-07-23T06:30:19;12.82;;;11.07;;
17065;SDS011;23120;52.336;21.182;2022-07-23T06:32:46;12.23;;;10.93;;
17065;SDS011;23120;52.336;21.182;2022-07-23T06:35:14;15.90;;;11.45;;
17065;SDS011;23120;52.336;21.182;2022-07-23T06:37:45;16.80;;;11.30;;
17065;SDS011;23120;52.336;21.182;2022-07-23T06:40:12;12.80;;;11.68;;
17065;SDS011;23120;52.336;21.182;2022-07-23T06:42:39;12.80;;;11.80;;
17065;SDS011;23120;52.336;21.182;2022-07-23T06:45:06;12.32;;;11.05;;
17065;SDS011;23120;52.336;21.182;2022-07-23T06:47:37;11.73;;;10.68;;
17065;SDS011;23120;52.336;21.182;2022-07-23T06:50:06;12.60;;;10.48;;
17065;SDS011;23120;52.336;21.182;2022-07-23T06:52:33;12.10;;;10.80;;
17065;SDS011;23120;52.336;21.182;2022-07-23T06:55:00;10.90;;;9.80;;
17065;SDS011;23120;52.336;21.182;2022-07-23T06:57:27;11.13;;;10.05;;
17065;SDS011;23120;52.336;21.182;2022-07-23T06:59:53;11.05;;;10.18;;
17065;SDS011;23120;52.336;21.182;2022-07-23T07:02:20;11.30;;;10.18;;
17065;SDS011;23120;52.336;21.182;2022-07-23T07:04:48;11.88;;;10.27;;
17065;SDS011;23120;52.336;21.182;2022-07-23T07:07:15;13.13;;;11.15;;
17065;SDS011;23120;52.336;21.182;2022-07-23T07:09:42;10.27;;;9.38;;
17065;SDS011;23120;52.336;21.182;2022-07-23T07:12:11;14.65;;;10.05;;
17065;SDS011;23120;52.336;21.182;2022-07-23T07:14:38;12.02;;;9.90;;
17065;SDS011;23120;52.336;21.182;2022-07-23T07:17:05;11.02;;;9.85;;
17065;SDS011;23120;52.336;21.182;2022-07-23T07:19:32;13.30;;;10.07;;
17065;SDS011;23120;52.336;21.182;2022-07-23T07:22:00;12.00;;;10.35;;
17065;SDS011;23120;52.336;21.182;2022-07-23T07:24:27;10.88;;;9.75;;
17065;SDS011;23120;52.336;21.182;2022-07-23T07:26:53;10.63;;;9.55;;
17065;SDS011;23120;52.336;21.182;2022-07-23T07:29:20;10.70;;;9.80;;
17065;SDS011;23120;52.336;21.182;2022-07-23T07:31:47;11.57;;;9.70;;
17065;SDS011;23120;52.336;21.182;2022-07-23T07:34:14;10.32;;;9.40;;
17065;SDS011;23120;52.336;21.182;2022-07-23T07:36:43;12.07;;;9.48;;
17065;SDS011;23120;52.336;21.182;2022-07-23T07:39:17;10.30;;;9.43;;
17065;SDS011;23120;52.336;21.182;2022-07-23T07:41:45;9.85;;;9.00;;
17065;SDS011;23120;52.336;21.182;2022-07-23T07:44:12;10.00;;;9.20;;
17065;SDS011;23120;52.336;21.182;2022-07-23T07:46:42;10.18;;;9.23;;
17065;SDS011;23120;52.336;21.182;2022-07-23T07:49:09;11.48;;;9.40;;
17065;SDS011;23120;52.336;21.182;2022-07-23T07:51:36;9.30;;;8.50;;
17065;SDS011;23120;52.336;21.182;2022-07-23T07:54:03;10.05;;;9.05;;
17065;SDS011;23120;52.336;21.182;2022-07-23T07:56:31;9.20;;;8.50;;
17065;SDS011;23120;52.336;21.182;2022-07-23T07:58:58;9.50;;;8.60;;
17065;SDS011;23120;52.336;21.182;2022-07-23T08:01:26;8.55;;;7.85;;
17065;SDS011;23120;52.336;21.182;2022-07-23T08:03:54;9.35;;;8.55;;
17065;SDS011;23120;52.336;21.182;2022-07-23T08:06:23;9.15;;;8.27;;
17065;SDS011;23120;52.336;21.182;2022-07-23T08:08:50;8.82;;;8.10;;
17065;SDS011;23120;52.336;21.182;2022-07-23T08:11:19;8.93;;;8.10;;
17065;SDS011;23120;52.336;21.182;2022-07-23T08:13:54;8.88;;;8.07;;
17065;SDS011;23120;52.336;21.182;2022-07-23T08:16:21;8.60;;;7.90;;
17065;SDS011;23120;52.336;21.182;2022-07-23T08:18:48;10.02;;;9.02;;
17065;SDS011;23120;52.336;21.182;2022-07-23T08:21:17;9.65;;;8.48;;
17065;SDS011;23120;52.336;21.182;2022-07-23T08:23:46;9.70;;;8.80;;
17065;SDS011;23120;52.336;21.182;2022-07-23T08:26:13;12.80;;;8.60;;
17065;SDS011;23120;52.336;21.182;2022-07-23T08:28:40;10.30;;;8.15;;
17065;SDS011;23120;52.336;21.182;2022-07-23T08:31:10;9.32;;;8.38;;
17065;SDS011;23120;52.336;21.182;2022-07-23T08:33:37;9.07;;;8.18;;
17065;SDS011;23120;52.336;21.182;2022-07-23T08:36:07;8.93;;;8.13;;
17065;SDS011;23120;52.336;21.182;2022-07-23T08:38:34;10.00;;;8.80;;
17065;SDS011;23120;52.336;21.182;2022-07-23T08:41:04;9.80;;;8.93;;
17065;SDS011;23120;52.336;21.182;2022-07-23T08:43:34;9.15;;;8.45;;
17065;SDS011;23120;52.336;21.182;2022-07-23T08:46:01;11.77;;;8.90;;
17065;SDS011;23120;52.336;21.182;2022-07-23T08:48:36;9.68;;;8.70;;
17065;SDS011;23120;52.336;21.182;2022-07-23T08:51:04;9.75;;;8.35;;
17065;SDS011;23120;52.336;21.182;2022-07-23T08:53:32;9.95;;;8.23;;
17065;SDS011;23120;52.336;21.182;2022-07-23T08:56:01;10.48;;;7.72;;
17065;SDS011;23120;52.336;21.182;2022-07-23T08:58:29;9.60;;;8.50;;
17065;SDS011;23120;52.336;21.182;2022-07-23T09:00:57;17.00;;;8.18;;
17065;SDS011;23120;52.336;21.182;2022-07-23T09:03:25;12.55;;;7.75;;
17065;SDS011;23120;52.336;21.182;2022-07-23T09:06:07;8.38;;;6.97;;
17065;SDS011;23120;52.336;21.182;2022-07-23T09:08:35;8.38;;;7.70;;
17065;SDS011;23120;52.336;21.182;2022-07-23T09:11:07;8.50;;;7.60;;
17065;SDS011;23120;52.336;21.182;2022-07-23T09:13:36;7.57;;;6.93;;
17065;SDS011;23120;52.336;21.182;2022-07-23T09:16:18;8.45;;;7.70;;
17065;SDS011;23120;52.336;21.182;2022-07-23T09:18:51;7.68;;;7.07;;
17065;SDS011;23120;52.336;21.182;2022-07-23T09:21:24;16.33;;;7.90;;
17065;SDS011;23120;52.336;21.182;2022-07-23T09:23:55;14.02;;;7.75;;
17065;SDS011;23120;52.336;21.182;2022-07-23T09:26:24;29.60;;;8.38;;
17065;SDS011;23120;52.336;21.182;2022-07-23T09:28:58;16.40;;;7.80;;
17065;SDS011;23120;52.336;21.182;2022-07-23T09:31:44;8.40;;;6.80;;
17065;SDS011;23120;52.336;21.182;2022-07-23T09:34:15;8.80;;;6.68;;
17065;SDS011;23120;52.336;21.182;2022-07-23T09:39:48;9.93;;;7.22;;
17065;SDS011;23120;52.336;21.182;2022-07-23T09:42:16;6.90;;;6.30;;
17065;SDS011;23120;52.336;21.182;2022-07-23T09:44:57;7.10;;;6.40;;
17065;SDS011;23120;52.336;21.182;2022-07-23T09:47:25;10.27;;;7.15;;
17065;SDS011;23120;52.336;21.182;2022-07-23T09:50:09;10.88;;;6.53;;
17065;SDS011;23120;52.336;21.182;2022-07-23T09:52:42;14.43;;;6.40;;
17065;SDS011;23120;52.336;21.182;2022-07-23T09:55:11;7.03;;;6.47;;
17065;SDS011;23120;52.336;21.182;2022-07-23T10:00:35;8.82;;;6.95;;
17065;SDS011;23120;52.336;21.182;2022-07-23T10:03:02;9.57;;;6.22;;
17065;SDS011;23120;52.336;21.182;2022-07-23T10:05:47;9.82;;;6.70;;
17065;SDS011;23120;52.336;21.182;2022-07-23T10:08:36;8.05;;;6.32;;
17065;SDS011;23120;52.336;21.182;2022-07-23T10:11:29;7.25;;;6.55;;
17065;SDS011;23120;52.336;21.182;2022-07-23T10:14:06;11.13;;;7.00;;
17065;SDS011;23120;52.336;21.182;2022-07-23T10:16:49;10.80;;;6.63;;
17065;SDS011;23120;52.336;21.182;2022-07-23T10:19:16;6.20;;;5.65;;
17065;SDS011;23120;52.336;21.182;2022-07-23T10:21:45;8.88;;;6.70;;
17065;SDS011;23120;52.336;21.182;2022-07-23T10:24:35;7.50;;;6.68;;
17065;SDS011;23120;52.336;21.182;2022-07-23T10:27:31;7.03;;;6.38;;
17065;SDS011;23120;52.336;21.182;2022-07-23T10:30:28;6.88;;;6.32;;
17065;SDS011;23120;52.336;21.182;2022-07-23T10:33:05;7.30;;;6.60;;
17065;SDS011;23120;52.336;21.182;2022-07-23T10:35:42;7.05;;;6.45;;
17065;SDS011;23120;52.336;21.182;2022-07-23T10:38:16;7.10;;;6.55;;
17065;SDS011;23120;52.336;21.182;2022-07-23T10:40:54;9.18;;;6.95;;
17065;SDS011;23120;52.336;21.182;2022-07-23T10:43:22;7.53;;;6.60;;
17065;SDS011;23120;52.336;21.182;2022-07-23T10:45:49;7.25;;;6.65;;
17065;SDS011;23120;52.336;21.182;2022-07-23T10:48:17;7.60;;;6.80;;
17065;SDS011;23120;52.336;21.182;2022-07-23T10:59:29;9.23;;;7.15;;
17065;SDS011;23120;52.336;21.182;2022-07-23T11:02:07;7.68;;;7.07;;
17065;SDS011;23120;52.336;21.182;2022-07-23T11:04:47;7.28;;;6.55;;
17065;SDS011;23120;52.336;21.182;2022-07-23T11:07:15;11.02;;;7.50;;
17065;SDS011;23120;52.336;21.182;2022-07-23T11:09:42;11.70;;;6.80;;
17065;SDS011;23120;52.336;21.182;2022-07-23T11:12:31;7.45;;;6.80;;
17065;SDS011;23120;52.336;21.182;2022-07-23T11:15:05;7.78;;;7.07;;
17065;SDS011;23120;52.336;21.182;2022-07-23T11:17:35;7.72;;;7.15;;
17065;SDS011;23120;52.336;21.182;2022-07-23T11:22:54;14.98;;;7.28;;
17065;SDS011;23120;52.336;21.182;2022-07-23T11:25:30;9.75;;;6.70;;
17065;SDS011;23120;52.336;21.182;2022-07-23T11:28:09;10.98;;;7.38;;
17065;SDS011;23120;52.336;21.182;2022-07-23T11:30:44;7.75;;;6.90;;
17065;SDS011;23120;52.336;21.182;2022-07-23T11:33:19;7.18;;;6.68;;
17065;SDS011;23120;52.336;21.182;2022-07-23T11:36:00;7.68;;;6.80;;
17065;SDS011;23120;52.336;21.182;2022-07-23T11:38:30;9.23;;;7.20;;
17065;SDS011;23120;52.336;21.182;2022-07-23T11:40:58;13.77;;;8.13;;
17065;SDS011;23120;52.336;21.182;2022-07-23T11:43:27;7.38;;;6.68;;
17065;SDS011;23120;52.336;21.182;2022-07-23T11:49:01;7.95;;;7.25;;
17065;SDS011;23120;52.336;21.182;2022-07-23T11:51:28;8.13;;;6.70;;
17065;SDS011;23120;52.336;21.182;2022-07-23T11:54:04;8.52;;;6.57;;
17065;SDS011;23120;52.336;21.182;2022-07-23T11:56:54;8.77;;;6.28;;
17065;SDS011;23120;52.336;21.182;2022-07-23T11:59:31;7.43;;;6.82;;
17065;SDS011;23120;52.336;21.182;2022-07-23T12:02:02;8.25;;;7.25;;
17065;SDS011;23120;52.336;21.182;2022-07-23T12:07:28;11.05;;;7.00;;
17065;SDS011;23120;52.336;21.182;2022-07-23T12:09:59;10.75;;;7.35;;
17065;SDS011;23120;52.336;21.182;2022-07-23T12:12:37;7.90;;;7.10;;
17065;SDS011;23120;52.336;21.182;2022-07-23T12:15:06;7.97;;;7.22;;
17065;SDS011;23120;52.336;21.182;2022-07-23T12:17:38;7.93;;;7.32;;
17065;SDS011;23120;52.336;21.182;2022-07-23T12:20:09;7.50;;;6.90;;
17065;SDS011;23120;52.336;21.182;2022-07-23T12:22:40;7.60;;;6.80;;
17065;SDS011;23120;52.336;21.182;2022-07-23T12:25:15;8.32;;;6.78;;
17065;SDS011;23120;52.336;21.182;2022-07-23T12:27:43;7.72;;;7.07;;
17065;SDS011;23120;52.336;21.182;2022-07-23T12:30:20;9.25;;;7.43;;
17065;SDS011;23120;52.336;21.182;2022-07-23T12:32:53;8.13;;;7.25;;
17065;SDS011;23120;52.336;21.182;2022-07-23T12:35:21;8.13;;;7.40;;
17065;SDS011;23120;52.336;21.182;2022-07-23T12:37:50;7.93;;;6.68;;
17065;SDS011;23120;52.336;21.182;2022-07-23T12:40:27;7.65;;;7.10;;
17065;SDS011;23120;52.336;21.182;2022-07-23T12:42:56;7.50;;;6.82;;
17065;SDS011;23120;52.336;21.182;2022-07-23T12:45:25;7.53;;;6.90;;
17065;SDS011;23120;52.336;21.182;2022-07-23T12:48:05;8.82;;;7.10;;
17065;SDS011;23120;52.336;21.182;2022-07-23T12:53:18;11.82;;;6.93;;
17065;SDS011;23120;52.336;21.182;2022-07-23T12:55:50;8.32;;;7.35;;
17065;SDS011;23120;52.336;21.182;2022-07-23T12:58:24;7.63;;;6.45;;
17065;SDS011;23120;52.336;21.182;2022-07-23T13:01:01;7.78;;;6.90;;
17065;SDS011;23120;52.336;21.182;2022-07-23T13:03:40;7.72;;;7.00;;
17065;SDS011;23120;52.336;21.182;2022-07-23T13:06:11;7.25;;;6.60;;
17065;SDS011;23120;52.336;21.182;2022-07-23T13:08:38;11.52;;;7.30;;
17065;SDS011;23120;52.336;21.182;2022-07-23T13:11:06;8.20;;;6.82;;
17065;SDS011;23120;52.336;21.182;2022-07-23T13:13:35;7.40;;;6.70;;
17065;SDS011;23120;52.336;21.182;2022-07-23T13:16:05;7.15;;;6.20;;
17065;SDS011;23120;52.336;21.182;2022-07-23T13:18:33;7.32;;;6.57;;
17065;SDS011;23120;52.336;21.182;2022-07-23T13:21:04;6.85;;;6.45;;
17065;SDS011;23120;52.336;21.182;2022-07-23T13:23:31;13.23;;;7.00;;
17065;SDS011;23120;52.336;21.182;2022-07-23T13:25:58;7.07;;;6.32;;
17065;SDS011;23120;52.336;21.182;2022-07-23T13:28:39;6.97;;;6.18;;
17065;SDS011;23120;52.336;21.182;2022-07-23T13:31:09;7.18;;;6.55;;
17065;SDS011;23120;52.336;21.182;2022-07-23T13:33:38;6.57;;;5.97;;
17065;SDS011;23120;52.336;21.182;2022-07-23T13:36:16;7.25;;;6.53;;
17065;SDS011;23120;52.336;21.182;2022-07-23T13:38:43;6.53;;;5.93;;
17065;SDS011;23120;52.336;21.182;2022-07-23T13:41:09;7.35;;;6.85;;
17065;SDS011;23120;52.336;21.182;2022-07-23T13:43:47;8.02;;;7.30;;
17065;SDS011;23120;52.336;21.182;2022-07-23T13:46:18;6.78;;;6.28;;
17065;SDS011;23120;52.336;21.182;2022-07-23T13:48:47;7.05;;;6.38;;
17065;SDS011;23120;52.336;21.182;2022-07-23T13:51:18;7.65;;;7.05;;
17065;SDS011;23120;52.336;21.182;2022-07-23T13:53:49;9.40;;;6.78;;
17065;SDS011;23120;52.336;21.182;2022-07-23T13:56:16;19.83;;;7.35;;
17065;SDS011;23120;52.336;21.182;2022-07-23T13:58:42;14.45;;;7.10;;
17065;SDS011;23120;52.336;21.182;2022-07-23T14:01:11;9.77;;;7.05;;
17065;SDS011;23120;52.336;21.182;2022-07-23T14:03:55;7.78;;;6.95;;
17065;SDS011;23120;52.336;21.182;2022-07-23T14:06:23;7.68;;;7.00;;
17065;SDS011;23120;52.336;21.182;2022-07-23T14:08:55;8.45;;;6.93;;
17065;SDS011;23120;52.336;21.182;2022-07-23T14:11:27;7.45;;;6.70;;
17065;SDS011;23120;52.336;21.182;2022-07-23T14:13:58;8.75;;;6.95;;
17065;SDS011;23120;52.336;21.182;2022-07-23T14:16:27;6.85;;;6.32;;
17065;SDS011;23120;52.336;21.182;2022-07-23T14:18:54;7.20;;;6.50;;
17065;SDS011;23120;52.336;21.182;2022-07-23T14:21:21;7.03;;;6.32;;
17065;SDS011;23120;52.336;21.182;2022-07-23T14:23:49;7.57;;;6.97;;
17065;SDS011;23120;52.336;21.182;2022-07-23T14:26:16;7.47;;;6.53;;
17065;SDS011;23120;52.336;21.182;2022-07-23T14:28:44;9.30;;;6.32;;
17065;SDS011;23120;52.336;21.182;2022-07-23T14:31:15;8.77;;;6.38;;
17065;SDS011;23120;52.336;21.182;2022-07-23T14:33:41;11.05;;;6.50;;
17065;SDS011;23120;52.336;21.182;2022-07-23T14:36:11;6.63;;;6.13;;
17065;SDS011;23120;52.336;21.182;2022-07-23T14:38:39;6.70;;;5.97;;
17065;SDS011;23120;52.336;21.182;2022-07-23T14:41:10;7.63;;;6.10;;
17065;SDS011;23120;52.336;21.182;2022-07-23T14:43:38;9.18;;;6.50;;
17065;SDS011;23120;52.336;21.182;2022-07-23T14:46:05;8.05;;;6.95;;
17065;SDS011;23120;52.336;21.182;2022-07-23T14:48:37;7.53;;;6.50;;
17065;SDS011;23120;52.336;21.182;2022-07-23T14:54:01;10.40;;;6.55;;
17065;SDS011;23120;52.336;21.182;2022-07-23T14:56:29;11.85;;;7.55;;
17065;SDS011;23120;52.336;21.182;2022-07-23T14:58:58;8.20;;;6.78;;
17065;SDS011;23120;52.336;21.182;2022-07-23T15:01:28;8.77;;;6.70;;
17065;SDS011;23120;52.336;21.182;2022-07-23T15:03:57;11.90;;;6.93;;